createdAt,value
2024-04-14T00:01:57.229Z,15.9
2024-04-14T00:03:56.575Z,15.9
2024-04-14T00:05:56.798Z,15.9
2024-04-14T00:07:56.781Z,15.8
2024-04-14T00:09:57.102Z,15.9
2024-04-14T00:11:58.144Z,16
2024-04-14T00:13:56.800Z,15.9
2024-04-14T00:15:57.106Z,15.9
2024-04-14T00:17:56.859Z,15.9
2024-04-14T00:19:57.297Z,15.8
2024-04-14T00:23:57.199Z,15.7
2024-04-14T00:25:56.830Z,15.8
2024-04-14T00:27:57.237Z,15.8
2024-04-14T00:29:56.879Z,15.7
2024-04-14T00:31:57.557Z,15.6
2024-04-14T00:33:57.098Z,15.7
2024-04-14T00:35:58.129Z,15.7
2024-04-14T00:37:57.550Z,15.6
2024-04-14T00:39:56.873Z,15.5
2024-04-14T00:41:56.873Z,15.6
2024-04-14T00:43:56.793Z,15.5
2024-04-14T00:45:56.606Z,15.4
2024-04-14T00:47:57.702Z,15.4
2024-04-14T00:49:57.582Z,15.3
2024-04-14T00:51:56.626Z,15.2
2024-04-14T00:53:56.810Z,15.2
2024-04-14T00:55:58.460Z,15.1
2024-04-14T00:57:56.657Z,15.3
2024-04-14T01:01:56.862Z,15.2
2024-04-14T01:03:58.507Z,15.1
2024-04-14T01:05:56.741Z,15.2
2024-04-14T01:07:58.403Z,15.2
2024-04-14T01:09:56.624Z,15.1
2024-04-14T01:11:57.002Z,15.2
2024-04-14T01:13:56.792Z,15.2
2024-04-14T01:15:58.864Z,15.1
2024-04-14T01:17:56.867Z,14.9
2024-04-14T01:19:56.796Z,14.9
2024-04-14T01:21:56.561Z,14.9
2024-04-14T01:23:58.571Z,14.9
2024-04-14T01:25:57.334Z,14.8
2024-04-14T01:27:57.309Z,14.8
2024-04-14T01:29:56.892Z,14.7
2024-04-14T01:31:56.805Z,14.6
2024-04-14T01:33:57.741Z,14.7
2024-04-14T01:35:56.770Z,14.7
2024-04-14T01:38:05.168Z,14.6
2024-04-14T01:39:56.612Z,14.6
2024-04-14T01:41:56.752Z,14.6
2024-04-14T01:43:56.806Z,14.5
2024-04-14T01:45:56.577Z,14.6
2024-04-14T01:47:56.841Z,14.6
2024-04-14T01:49:56.805Z,14.6
2024-04-14T01:53:56.778Z,14.5
2024-04-14T01:55:56.795Z,14.4
2024-04-14T01:57:57.066Z,14.4
2024-04-14T01:59:58.028Z,14.4
2024-04-14T02:03:57.974Z,14.5
2024-04-14T02:05:56.753Z,14.7
2024-04-14T02:07:56.864Z,14.7
2024-04-14T02:09:56.612Z,14.6
2024-04-14T02:11:57.228Z,14.7
2024-04-14T02:13:56.782Z,14.7
2024-04-14T02:15:57.332Z,14.8
2024-04-14T02:17:56.886Z,14.8
2024-04-14T02:21:56.552Z,14.7
2024-04-14T02:23:57.938Z,14.8
2024-04-14T02:27:56.893Z,14.7
2024-04-14T02:29:56.766Z,14.7
2024-04-14T02:31:56.774Z,14.7
2024-04-14T02:33:56.618Z,14.6
2024-04-14T02:37:56.775Z,14.8
2024-04-14T02:39:57.198Z,14.8
2024-04-14T02:41:56.860Z,14.7
2024-04-14T02:43:56.817Z,14.8
2024-04-14T02:45:56.724Z,14.7
2024-04-14T02:47:56.801Z,14.7
2024-04-14T02:49:58.503Z,14.7
2024-04-14T02:51:56.563Z,14.7
2024-04-14T02:53:57.972Z,14.6
2024-04-14T02:55:56.832Z,14.6
2024-04-14T02:57:56.729Z,14.6
2024-04-14T02:59:58.256Z,14.4
2024-04-14T03:01:56.810Z,14.5
2024-04-14T03:03:56.607Z,14.5
2024-04-14T03:05:57.551Z,14.4
2024-04-14T03:07:56.788Z,14.4
2024-04-14T03:09:58.654Z,14.3
2024-04-14T03:11:56.862Z,14.4
2024-04-14T03:13:56.807Z,14.3
2024-04-14T03:15:58.364Z,14.4
2024-04-14T03:17:56.777Z,14.4
2024-04-14T03:19:56.927Z,14.4
2024-04-14T03:21:56.636Z,14.2
2024-04-14T03:23:57.230Z,14.2
2024-04-14T03:25:56.800Z,14.2
2024-04-14T03:27:56.654Z,14.3
2024-04-14T03:29:57.230Z,14.2
2024-04-14T03:31:56.853Z,14.2
2024-04-14T03:33:56.625Z,14.2
2024-04-14T03:35:57.304Z,14.2
2024-04-14T03:37:57.213Z,14.2
2024-04-14T03:39:56.652Z,14.1
2024-04-14T03:41:57.465Z,14.2
2024-04-14T03:43:57.481Z,14.2
2024-04-14T03:45:56.724Z,14.2
2024-04-14T03:47:57.501Z,14.2
2024-04-14T03:49:56.771Z,14.3
2024-04-14T03:51:56.926Z,14.3
2024-04-14T03:53:56.787Z,14.3
2024-04-14T03:55:57.212Z,14.4
2024-04-14T03:57:56.603Z,14.3
2024-04-14T03:59:58.136Z,14.4
2024-04-14T04:01:57.250Z,14.4
2024-04-14T04:07:56.806Z,14.4
2024-04-14T04:09:56.716Z,14.4
2024-04-14T04:11:58.152Z,14.3
2024-04-14T04:13:57.671Z,14.3
2024-04-14T04:15:56.584Z,14.4
2024-04-14T04:17:56.805Z,14.3
2024-04-14T04:19:58.013Z,14.3
2024-04-14T04:21:56.594Z,14.4
2024-04-14T04:23:56.785Z,14.2
2024-04-14T04:25:56.817Z,14.3
2024-04-14T04:27:56.907Z,14.2
2024-04-14T04:29:56.769Z,14.1
2024-04-14T04:31:58.270Z,14.3
2024-04-14T04:33:56.576Z,14.4
2024-04-14T04:35:56.787Z,14.5
2024-04-14T04:37:56.816Z,14.4
2024-04-14T04:39:57.869Z,14.4
2024-04-14T04:41:56.765Z,14.4
2024-04-14T04:43:57.256Z,14.6
2024-04-14T04:49:56.771Z,14.4
2024-04-14T04:51:56.625Z,14.6
2024-04-14T04:55:57.739Z,14.6
2024-04-14T04:57:57.314Z,14.6
2024-04-14T04:59:58.466Z,14.7
2024-04-14T05:01:56.791Z,14.7
2024-04-14T05:03:56.678Z,14.9
2024-04-14T05:09:56.636Z,14.9
2024-04-14T05:11:56.803Z,14.9
2024-04-14T05:13:56.839Z,14.8
2024-04-14T05:15:57.074Z,14.7
2024-04-14T05:17:56.846Z,14.9
2024-04-14T05:19:58.643Z,14.9
2024-04-14T05:21:56.573Z,14.8
2024-04-14T05:23:56.778Z,14.8
2024-04-14T05:25:56.826Z,14.8
2024-04-14T05:27:57.380Z,14.9
2024-04-14T05:29:57.210Z,14.8
2024-04-14T05:31:56.843Z,14.8
2024-04-14T05:33:57.789Z,14.8
2024-04-14T05:35:56.824Z,15
2024-04-14T05:37:56.901Z,14.9
2024-04-14T05:39:58.326Z,15
2024-04-14T05:41:56.821Z,15.1
2024-04-14T05:43:56.833Z,15.1
2024-04-14T05:45:56.587Z,15.2
2024-04-14T05:47:57.339Z,15.3
2024-04-14T05:49:59.640Z,15.5
2024-04-14T05:51:56.689Z,15.6
2024-04-14T05:53:56.802Z,15.8
2024-04-14T05:57:56.590Z,15.8
2024-04-14T05:59:57.123Z,15.8
2024-04-14T06:01:56.836Z,16.1
2024-04-14T06:03:56.587Z,16.1
2024-04-14T06:05:57.155Z,16.1
2024-04-14T06:07:57.337Z,16.2
2024-04-14T06:09:56.641Z,16.3
2024-04-14T06:11:58.570Z,16.3
2024-04-14T06:13:56.801Z,16.7
2024-04-14T06:17:56.799Z,17.6
2024-04-14T06:21:56.642Z,18.1
2024-04-14T06:25:56.816Z,18.2
2024-04-14T06:27:56.635Z,18.2
2024-04-14T06:29:57.149Z,18.3
2024-04-14T06:31:57.276Z,18.3
2024-04-14T06:33:56.592Z,18.4
2024-04-14T06:35:57.254Z,18.4
2024-04-14T06:37:56.829Z,18.5
2024-04-14T06:39:56.621Z,18.6
2024-04-14T06:41:58.515Z,18.6
2024-04-14T06:43:56.776Z,18.6
2024-04-14T06:45:56.643Z,18.6
2024-04-14T06:47:57.534Z,18.7
2024-04-14T06:49:57.552Z,18.7
2024-04-14T06:51:56.655Z,18.8
2024-04-14T06:55:57.327Z,18.8
2024-04-14T06:57:56.557Z,18.9
2024-04-14T06:59:57.244Z,18.9
2024-04-14T07:01:56.983Z,19
2024-04-14T07:03:56.674Z,19.1
2024-04-14T07:05:56.764Z,19.1
2024-04-14T07:07:56.872Z,19.1
2024-04-14T07:09:56.715Z,19.2
2024-04-14T07:11:56.850Z,19.2
2024-04-14T07:13:56.908Z,19.3
2024-04-14T07:15:56.782Z,19.3
2024-04-14T07:17:59.008Z,19.3
2024-04-14T07:19:57.242Z,19.3
2024-04-14T07:21:56.616Z,19.4
2024-04-14T07:23:56.811Z,19.5
2024-04-14T07:25:56.835Z,19.5
2024-04-14T07:27:56.620Z,19.6
2024-04-14T07:29:57.309Z,19.6
2024-04-14T07:31:56.834Z,19.6
2024-04-14T07:33:57.716Z,19.6
2024-04-14T07:35:57.528Z,19.8
2024-04-14T07:37:56.850Z,19.8
2024-04-14T07:39:57.935Z,19.9
2024-04-14T07:41:56.783Z,19.8
2024-04-14T07:43:56.926Z,19.9
2024-04-14T07:45:56.685Z,19.9
2024-04-14T07:47:57.617Z,19.9
2024-04-14T07:49:56.801Z,19.9
2024-04-14T07:51:57.550Z,20.1
2024-04-14T07:53:56.765Z,20.2
2024-04-14T07:55:57.851Z,20.1
2024-04-14T07:57:56.628Z,20.1
2024-04-14T07:59:57.117Z,20.2
2024-04-14T08:01:57.231Z,20.2
2024-04-14T08:03:57.793Z,20.4
2024-04-14T08:05:57.177Z,20.4
2024-04-14T08:07:58.315Z,20.4
2024-04-14T08:09:56.562Z,20.4
2024-04-14T08:11:57.095Z,20.5
2024-04-14T08:13:57.606Z,20.5
2024-04-14T08:15:57.098Z,20.6
2024-04-14T08:17:57.196Z,20.5
2024-04-14T08:19:58.072Z,20.4
2024-04-14T08:21:57.047Z,20.4
2024-04-14T08:23:57.887Z,20.5
2024-04-14T08:25:56.805Z,20.5
2024-04-14T08:27:57.604Z,20.5
2024-04-14T08:29:56.786Z,20.5
2024-04-14T08:31:57.556Z,20.7
2024-04-14T08:33:56.637Z,20.7
2024-04-14T08:35:56.889Z,20.6
2024-04-14T08:37:56.831Z,20.7
2024-04-14T08:39:56.784Z,20.8
2024-04-14T08:41:59.208Z,20.8
2024-04-14T08:43:57.215Z,20.7
2024-04-14T08:45:56.981Z,20.8
2024-04-14T08:47:56.838Z,20.9
2024-04-14T08:51:56.591Z,21
2024-04-14T08:53:58.564Z,21.1
2024-04-14T08:55:58.160Z,21.2
2024-04-14T08:57:56.575Z,21.2
2024-04-14T08:59:57.171Z,21.2
2024-04-14T09:01:56.875Z,21.2
2024-04-14T09:03:56.706Z,21.2
2024-04-14T09:05:56.815Z,21.2
2024-04-14T09:09:56.646Z,21.2
2024-04-14T09:11:56.835Z,21.2
2024-04-14T09:15:56.614Z,21.3
2024-04-14T09:19:57.343Z,21.2
2024-04-14T09:21:56.624Z,21.3
2024-04-14T09:23:58.615Z,21.4
2024-04-14T09:25:56.818Z,21.4
2024-04-14T09:27:56.735Z,21.4
2024-04-14T09:29:56.854Z,21.4
2024-04-14T09:32:00.078Z,21.4
2024-04-14T09:33:56.647Z,21.4
2024-04-14T09:35:57.382Z,21.5
2024-04-14T09:37:59.538Z,21.5
2024-04-14T09:39:58.950Z,21.5
2024-04-14T09:41:56.816Z,21.4
2024-04-14T09:43:57.244Z,21.5
2024-04-14T09:45:56.650Z,21.5
2024-04-14T09:47:57.211Z,21.6
2024-04-14T09:49:57.285Z,21.5
2024-04-14T09:51:57.423Z,21.5
2024-04-14T09:53:57.578Z,21.5
2024-04-14T09:57:56.993Z,21.5
2024-04-14T09:59:56.819Z,21.6
2024-04-14T10:01:56.926Z,21.6
2024-04-14T10:05:57.470Z,21.7
2024-04-14T10:07:57.284Z,21.7
2024-04-14T10:09:56.614Z,21.7
2024-04-14T10:13:57.285Z,21.7
2024-04-14T10:15:56.643Z,21.8
2024-04-14T10:17:58.759Z,21.9
2024-04-14T10:19:56.830Z,21.9
2024-04-14T10:21:57.182Z,22
2024-04-14T10:23:57.581Z,22
2024-04-14T10:25:57.196Z,22
2024-04-14T10:27:56.665Z,22
2024-04-14T10:29:56.821Z,22
2024-04-14T10:31:56.856Z,22
2024-04-14T10:33:56.683Z,22
2024-04-14T10:35:57.056Z,22.1
2024-04-14T10:37:56.917Z,22.1
2024-04-14T10:39:56.802Z,22.1
2024-04-14T10:41:56.816Z,22.2
2024-04-14T10:43:56.873Z,22.1
2024-04-14T10:45:56.631Z,22.2
2024-04-14T10:47:58.577Z,22.2
2024-04-14T10:49:56.847Z,22.2
2024-04-14T10:51:57.359Z,22.2
2024-04-14T10:53:56.821Z,22.3
2024-04-14T10:55:57.644Z,22.4
2024-04-14T10:57:57.067Z,22.4
2024-04-14T10:59:56.873Z,22.4
2024-04-14T11:01:57.306Z,22.4
2024-04-14T11:03:56.705Z,22.4
2024-04-14T11:05:56.831Z,22.4
2024-04-14T11:07:57.136Z,22.4
2024-04-14T11:09:56.985Z,22.4
2024-04-14T11:11:57.209Z,22.3
2024-04-14T11:13:57.320Z,22.4
2024-04-14T11:15:56.629Z,22.4
2024-04-14T11:17:56.818Z,22.4
2024-04-14T11:19:57.282Z,22.4
2024-04-14T11:21:58.593Z,22.4
2024-04-14T11:23:57.754Z,22.4
2024-04-14T11:25:57.179Z,22.4
2024-04-14T11:27:56.880Z,22.4
2024-04-14T11:29:56.839Z,22.4
2024-04-14T11:31:56.952Z,22.4
2024-04-14T11:33:56.744Z,22.4
2024-04-14T11:35:57.430Z,22.4
2024-04-14T11:37:56.835Z,22.5
2024-04-14T11:39:57.032Z,22.5
2024-04-14T11:41:57.820Z,22.5
2024-04-14T11:43:56.860Z,22.4
2024-04-14T11:45:56.637Z,22.4
2024-04-14T11:47:57.990Z,22.4
2024-04-14T11:49:56.832Z,22.5
2024-04-14T11:51:56.657Z,22.5
2024-04-14T11:53:56.826Z,22.5
2024-04-14T11:55:56.858Z,22.5
2024-04-14T11:57:58.621Z,22.5
2024-04-14T11:59:56.796Z,22.6
2024-04-14T12:01:56.875Z,22.6
2024-04-14T12:03:57.396Z,22.6
2024-04-14T12:05:58.092Z,22.6
2024-04-14T12:07:56.817Z,22.6
2024-04-14T12:09:57.107Z,22.6
2024-04-14T12:11:56.856Z,22.7
2024-04-14T12:13:57.239Z,22.7
2024-04-14T12:15:56.644Z,22.6
2024-04-14T12:17:58.100Z,22.6
2024-04-14T12:21:56.638Z,22.6
2024-04-14T12:23:56.856Z,22.6
2024-04-14T12:25:56.991Z,22.7
2024-04-14T12:27:57.381Z,22.7
2024-04-14T12:29:56.843Z,22.7
2024-04-14T12:31:57.104Z,22.7
2024-04-14T12:33:56.647Z,22.7
2024-04-14T12:35:57.568Z,22.7
2024-04-14T12:37:56.859Z,22.7
2024-04-14T12:39:57.126Z,22.8
2024-04-14T12:41:58.976Z,22.8
2024-04-14T12:43:56.831Z,22.8
2024-04-14T12:45:58.180Z,22.8
2024-04-14T12:47:56.943Z,22.9
2024-04-14T12:49:57.420Z,22.9
2024-04-14T12:51:56.712Z,22.9
2024-04-14T12:53:58.620Z,22.8
2024-04-14T12:55:57.415Z,22.8
2024-04-14T12:57:56.596Z,22.8
2024-04-14T12:59:56.875Z,22.9
2024-04-14T13:01:57.304Z,22.9
2024-04-14T13:03:56.716Z,22.9
2024-04-14T13:05:59.161Z,23
2024-04-14T13:07:56.864Z,23
2024-04-14T13:09:57.117Z,23
2024-04-14T13:11:56.863Z,23
2024-04-14T13:13:57.446Z,23
2024-04-14T13:15:56.652Z,23
2024-04-14T13:17:56.874Z,23
2024-04-14T13:19:56.985Z,23
2024-04-14T13:23:56.863Z,23
2024-04-14T13:25:57.112Z,23
2024-04-14T13:27:57.156Z,23
2024-04-14T13:29:59.124Z,23
2024-04-14T13:31:57.216Z,23
2024-04-14T13:33:57.145Z,23
2024-04-14T13:35:56.908Z,23
2024-04-14T13:37:56.877Z,23
2024-04-14T13:39:56.644Z,23.1
2024-04-14T13:41:56.845Z,23.1
2024-04-14T13:43:56.872Z,23.1
2024-04-14T13:45:56.800Z,23.2
2024-04-14T13:47:57.600Z,23.2
2024-04-14T13:49:56.857Z,23.2
2024-04-14T13:51:57.378Z,23.2
2024-04-14T13:53:57.595Z,23.1
2024-04-14T13:55:56.857Z,23.1
2024-04-14T13:57:58.627Z,23.1
2024-04-14T13:59:56.811Z,23.1
2024-04-14T14:01:57.321Z,23.1
2024-04-14T14:03:56.701Z,23.2
2024-04-14T14:05:56.857Z,23.2
2024-04-14T14:11:56.849Z,23.1
2024-04-14T14:13:57.705Z,23.1
2024-04-14T14:15:56.659Z,23.1
2024-04-14T14:17:57.034Z,23.1
2024-04-14T14:19:57.654Z,23.2
2024-04-14T14:23:56.884Z,23.2
2024-04-14T14:25:58.082Z,23.2
2024-04-14T14:27:57.119Z,23.2
2024-04-14T14:29:56.837Z,23.2
2024-04-14T14:31:56.890Z,23.2
2024-04-14T14:33:56.781Z,23.2
2024-04-14T14:35:56.881Z,23.2
2024-04-14T14:39:57.080Z,23.2
2024-04-14T14:41:56.863Z,23.2
2024-04-14T14:43:57.579Z,23.2
2024-04-14T14:45:56.649Z,23.2
2024-04-14T14:47:57.036Z,23.2
2024-04-14T14:49:56.874Z,23.2
2024-04-14T14:53:56.835Z,23.2
2024-04-14T14:55:57.355Z,23.1
2024-04-14T14:57:56.660Z,23.1
2024-04-14T14:59:56.874Z,23.1
2024-04-14T15:01:57.259Z,23
2024-04-14T15:03:56.758Z,23.1
2024-04-14T15:05:56.865Z,23.1
2024-04-14T15:11:56.952Z,23
2024-04-14T15:13:56.880Z,23
2024-04-14T15:15:56.736Z,23
2024-04-14T15:17:56.888Z,23
2024-04-14T15:19:56.869Z,22.9
2024-04-14T15:23:56.889Z,22.9
2024-04-14T15:25:56.905Z,22.9
2024-04-14T15:27:56.675Z,22.9
2024-04-14T15:29:58.315Z,22.9
2024-04-14T15:35:56.871Z,22.8
2024-04-14T15:37:57.909Z,22.8
2024-04-14T15:41:57.241Z,22.7
2024-04-14T15:43:59.384Z,22.7
2024-04-14T15:45:57.483Z,22.7
2024-04-14T15:47:56.843Z,22.7
2024-04-14T15:49:57.370Z,22.7
2024-04-14T15:51:56.643Z,22.7
2024-04-14T15:53:57.402Z,22.7
2024-04-14T15:55:56.881Z,22.7
2024-04-14T15:57:56.728Z,22.7
2024-04-14T15:59:57.069Z,22.6
2024-04-14T16:01:57.625Z,22.6
2024-04-14T16:05:57.359Z,22.6
2024-04-14T16:07:56.910Z,22.6
2024-04-14T16:09:56.986Z,22.5
2024-04-14T16:11:56.870Z,22.5
2024-04-14T16:13:57.274Z,22.5
2024-04-14T16:15:57.041Z,22.5
2024-04-14T16:17:57.697Z,22.5
2024-04-14T16:19:56.873Z,22.5
2024-04-14T16:21:57.972Z,22.5
2024-04-14T16:25:57.335Z,22.5
2024-04-14T16:27:56.630Z,22.4
2024-04-14T16:29:57.384Z,22.5
2024-04-14T16:31:57.558Z,22.4
2024-04-14T16:33:57.409Z,22.4
2024-04-14T16:35:56.883Z,22.4
2024-04-14T16:39:56.635Z,22.4
2024-04-14T16:41:58.056Z,22.3
2024-04-14T16:43:57.639Z,22.3
2024-04-14T16:45:57.408Z,22.3
2024-04-14T16:47:56.945Z,22.2
2024-04-14T16:49:58.082Z,22.2
2024-04-14T16:51:56.642Z,22.2
2024-04-14T16:53:57.109Z,22.2
2024-04-14T16:57:57.092Z,22.1
2024-04-14T16:59:57.446Z,22.1
2024-04-14T17:01:57.363Z,22
2024-04-14T17:03:56.741Z,22
2024-04-14T17:05:56.873Z,22
2024-04-14T17:07:57.413Z,21.9
2024-04-14T17:09:56.666Z,21.9
2024-04-14T17:11:57.338Z,21.9
2024-04-14T17:13:57.342Z,21.8
2024-04-14T17:15:56.726Z,21.7
2024-04-14T17:17:58.453Z,21.8
2024-04-14T17:19:57.409Z,21.7
2024-04-14T17:21:56.769Z,21.7
2024-04-14T17:23:56.896Z,21.5
2024-04-14T17:25:56.971Z,21.4
2024-04-14T17:27:57.457Z,21.5
2024-04-14T17:29:57.276Z,21.7
2024-04-14T17:31:56.928Z,21.4
2024-04-14T17:33:57.021Z,21.5
2024-04-14T17:37:56.869Z,21.4
2024-04-14T17:39:56.668Z,21.3
2024-04-14T17:41:56.869Z,21.1
2024-04-14T17:45:56.666Z,21.3
2024-04-14T17:47:57.309Z,21.1
2024-04-14T17:49:56.902Z,21.1
2024-04-14T17:51:58.354Z,21.1
2024-04-14T17:53:56.844Z,21
2024-04-14T17:57:56.654Z,20.9
2024-04-14T18:01:56.915Z,20.5
2024-04-14T18:03:57.032Z,20.6
2024-04-14T18:05:58.215Z,20.6
2024-04-14T18:07:56.863Z,20.4
2024-04-14T18:11:56.855Z,20.3
2024-04-14T18:13:57.243Z,20.3
2024-04-14T18:15:56.708Z,20.5
2024-04-14T18:17:56.902Z,20.3
2024-04-14T18:19:56.921Z,20.2
2024-04-14T18:23:59.368Z,20.3
2024-04-14T18:25:56.903Z,20.3
2024-04-14T18:27:56.792Z,20.2
2024-04-14T18:29:57.038Z,20.2
2024-04-14T18:31:56.971Z,20.3
2024-04-14T18:33:57.886Z,20.3
2024-04-14T18:35:59.649Z,20.3
2024-04-14T18:37:57.696Z,20.3
2024-04-14T18:39:56.731Z,20.5
2024-04-14T18:43:56.878Z,20.5
2024-04-14T18:45:57.302Z,20
2024-04-14T18:47:56.916Z,20.2
2024-04-14T18:49:58.602Z,20.2
2024-04-14T18:51:56.702Z,20.2
2024-04-14T18:53:57.647Z,20
2024-04-14T18:55:56.954Z,19.9
2024-04-14T18:57:57.149Z,20.3
2024-04-14T18:59:56.897Z,20.2
2024-04-14T19:01:57.162Z,20.2
2024-04-14T19:03:56.757Z,20
2024-04-14T19:05:57.733Z,20
2024-04-14T19:07:56.879Z,20
2024-04-14T19:09:57.351Z,19.9
2024-04-14T19:11:57.287Z,19.9
2024-04-14T19:13:57.345Z,19.3
2024-04-14T19:15:57.403Z,19.3
2024-04-14T19:17:56.935Z,19.4
2024-04-14T19:19:56.923Z,19.4
2024-04-14T19:23:56.909Z,19.4
2024-04-14T19:25:57.204Z,19.5
2024-04-14T19:27:56.757Z,19.3
2024-04-14T19:29:56.962Z,19.2
2024-04-14T19:33:56.812Z,19.1
2024-04-14T19:35:57.887Z,19.2
2024-04-14T19:37:57.022Z,19.1
2024-04-14T19:39:57.042Z,19
2024-04-14T19:41:57.397Z,18.9
2024-04-14T19:43:56.920Z,18.7
2024-04-14T19:45:58.428Z,18.6
2024-04-14T19:47:56.967Z,18.6
2024-04-14T19:49:59.141Z,18.5
2024-04-14T19:51:56.646Z,18.4
2024-04-14T19:53:58.671Z,18.5
2024-04-14T19:55:57.353Z,18.4
2024-04-14T19:57:56.732Z,18.5
2024-04-14T20:01:57.748Z,18.6
2024-04-14T20:03:56.700Z,18.5
2024-04-14T20:05:57.413Z,18.4
2024-04-14T20:07:56.881Z,18.7
2024-04-14T20:09:57.299Z,18.4
2024-04-14T20:13:56.895Z,18
2024-04-14T20:15:56.737Z,18.5
2024-04-14T20:17:57.827Z,18.3
2024-04-14T20:19:57.261Z,18.4
2024-04-14T20:21:56.688Z,18.2
2024-04-14T20:23:56.879Z,18.3
2024-04-14T20:25:58.287Z,18.2
2024-04-14T20:29:57.344Z,18.1
2024-04-14T20:31:56.919Z,18.3
2024-04-14T20:33:58.117Z,18.1
2024-04-14T20:35:56.855Z,17.6
2024-04-14T20:37:57.073Z,17.9
2024-04-14T20:39:56.714Z,17.8
2024-04-14T20:41:56.893Z,18.1
2024-04-14T20:45:57.218Z,17.6
2024-04-14T20:47:56.952Z,17.4
2024-04-14T20:49:57.384Z,17.9
2024-04-14T20:51:56.732Z,18
2024-04-14T20:53:57.734Z,18
2024-04-14T20:55:57.279Z,18.1
2024-04-14T20:59:56.890Z,18
2024-04-14T21:01:57.728Z,18.1
2024-04-14T21:03:56.691Z,18.1
2024-04-14T21:05:57.130Z,17.9
2024-04-14T21:07:56.921Z,17.9
2024-04-14T21:09:58.214Z,17.7
2024-04-14T21:13:57.248Z,17.7
2024-04-14T21:15:56.683Z,17.6
2024-04-14T21:17:57.326Z,17.6
2024-04-14T21:19:56.998Z,17.6
2024-04-14T21:21:56.719Z,17.4
2024-04-14T21:23:56.870Z,17.8
2024-04-14T21:25:58.331Z,18
2024-04-14T21:27:56.679Z,17.9
2024-04-14T21:29:58.438Z,17.7
2024-04-14T21:31:56.884Z,17.7
2024-04-14T21:33:56.977Z,17.4
2024-04-14T21:37:56.905Z,17.1
2024-04-14T21:39:56.807Z,17.4
2024-04-14T21:41:57.658Z,17.7
2024-04-14T21:43:56.905Z,17.7
2024-04-14T21:45:58.153Z,17.8
2024-04-14T21:47:56.890Z,17.8
2024-04-14T21:49:57.251Z,17.3
2024-04-14T21:51:56.791Z,16.9
2024-04-14T21:53:57.752Z,17.1
2024-04-14T21:55:56.879Z,17
2024-04-14T21:57:56.687Z,16.5
2024-04-14T21:59:56.902Z,16.8
2024-04-14T22:01:58.533Z,16.9
2024-04-14T22:04:01.278Z,16.2
2024-04-14T22:05:58.894Z,16.2
2024-04-14T22:07:56.952Z,16.6
2024-04-14T22:09:57.536Z,16.8
2024-04-14T22:11:56.879Z,17
2024-04-14T22:13:56.920Z,16.9
2024-04-14T22:15:56.700Z,17
2024-04-14T22:17:57.036Z,16.8
2024-04-14T22:19:57.426Z,16.7
2024-04-14T22:21:57.407Z,16.7
2024-04-14T22:23:56.973Z,16.7
2024-04-14T22:25:57.634Z,17
2024-04-14T22:27:56.681Z,16.5
2024-04-14T22:29:57.418Z,16.5
2024-04-14T22:31:56.932Z,16.7
2024-04-14T22:33:57.427Z,16.7
2024-04-14T22:35:56.851Z,16.2
2024-04-14T22:37:57.865Z,16.3
2024-04-14T22:39:56.721Z,16.8
2024-04-14T22:41:58.069Z,17
2024-04-14T22:43:56.900Z,16.9
2024-04-14T22:45:56.741Z,16.9
2024-04-14T22:47:56.886Z,17
2024-04-14T22:49:57.052Z,16.9
2024-04-14T22:51:57.145Z,16.7
2024-04-14T22:53:57.310Z,16.8
2024-04-14T22:55:57.497Z,16.8
2024-04-14T22:57:56.668Z,16.6
2024-04-14T22:59:56.886Z,16.1
2024-04-14T23:01:57.155Z,16.2
2024-04-14T23:05:58.529Z,16.2
2024-04-14T23:07:56.910Z,16.2
2024-04-14T23:09:57.285Z,16.4
2024-04-14T23:11:56.901Z,16.3
2024-04-14T23:13:57.403Z,16.5
2024-04-14T23:15:56.678Z,16.1
2024-04-14T23:19:56.906Z,16.5
2024-04-14T23:21:58.271Z,16.5
2024-04-14T23:23:56.874Z,16.3
2024-04-14T23:27:56.804Z,16
2024-04-14T23:31:56.943Z,15.8
2024-04-14T23:33:57.957Z,15.5
2024-04-14T23:35:57.331Z,15.9
2024-04-14T23:37:56.905Z,15.9
2024-04-14T23:39:57.422Z,15.7
2024-04-14T23:41:57.375Z,15.9
2024-04-14T23:43:56.932Z,15.6
2024-04-14T23:45:57.600Z,15.8
2024-04-14T23:47:57.675Z,16.1
2024-04-14T23:51:57.463Z,16.2
2024-04-14T23:53:57.825Z,16.1
2024-04-14T23:55:56.905Z,16.1
2024-04-14T23:57:58.102Z,15.8
2024-04-14T23:59:56.969Z,16.1
